Time;durP1;ratioP1;P1;durP2;ratioP2;P2;SDS_P1;SDS_P2;PMS_P1;PMS_P2;Temp;Humidity;BMP_temperature;BMP_pressure;BME280_temperature;BME280_humidity;BME280_pressure;Samples;Min_cycle;Max_cycle;Signal;HPM_P1;HPM_P2
2022/04/03 00:00:03;;;;;;;;;0.00;0.00;;;;;3.99;66.68;-18573.06;5045429;28;12173;-71
2022/04/03 00:02:29;;;;;;;;;0.75;0.75;;;;;3.90;66.90;-18570.34;5034845;28;11991;-71
2022/04/03 00:04:55;;;;;;;;;0.00;0.00;;;;;3.90;67.25;-18570.47;5043101;28;11460;-71
2022/04/03 00:07:22;;;;;;;;;0.00;0.00;;;;;3.86;67.11;-18569.28;5041104;28;11464;-71
2022/04/03 00:09:49;;;;;;;;;0.00;0.00;;;;;3.87;67.16;-18569.44;5041575;28;12229;-71
2022/04/03 00:12:15;;;;;;;;;1.25;1.00;;;;;3.83;67.61;-18568.38;5030692;28;11474;-71
2022/04/03 00:14:41;;;;;;;;;1.00;1.00;;;;;3.79;67.66;-18567.16;5033553;28;11460;-71
2022/04/03 00:17:08;;;;;;;;;2.75;1.00;;;;;3.75;67.90;-18565.94;5049944;28;11485;-71
2022/04/03 00:19:34;;;;;;;;;2.25;1.00;;;;;3.71;68.21;-18564.88;5049329;28;12164;-71
2022/04/03 00:22:01;;;;;;;;;1.00;1.00;;;;;3.61;68.36;-18561.84;5015161;28;11425;-71
2022/04/03 00:24:28;;;;;;;;;0.00;0.00;;;;;3.57;68.46;-18560.66;5022725;28;11419;-71
2022/04/03 00:26:54;;;;;;;;;0.00;0.00;;;;;3.55;68.77;-18559.91;5032428;28;11493;-71
2022/04/03 00:29:23;;;;;;;;;2.00;0.00;;;;;3.48;69.09;-18557.94;5031370;28;11448;-71
2022/04/03 00:31:50;;;;;;;;;0.00;0.00;;;;;3.45;69.31;-18557.00;5031611;28;11446;-71
2022/04/03 00:34:17;;;;;;;;;0.75;0.75;;;;;3.42;69.66;-18555.94;5032433;28;11447;-71
2022/04/03 00:36:43;;;;;;;;;0.00;0.00;;;;;3.35;69.87;-18554.00;5040667;28;12231;-71
2022/04/03 00:39:10;;;;;;;;;2.50;1.00;;;;;3.39;69.69;-18555.34;5046578;28;11542;-71
2022/04/03 00:41:37;;;;;;;;;1.00;1.00;;;;;3.37;69.88;-18554.59;5046013;28;11445;-72
2022/04/03 00:44:04;;;;;;;;;0.75;0.75;;;;;3.37;69.83;-18554.75;5052999;28;11412;-71
2022/04/03 00:46:36;;;;;;;;;0.50;0.00;;;;;3.39;69.82;-18555.19;5038174;28;11446;-71
2022/04/03 00:49:03;;;;;;;;;1.00;1.00;;;;;3.39;69.84;-18555.34;5039613;28;11445;-71
2022/04/03 00:51:29;;;;;;;;;0.50;0.50;;;;;3.42;69.64;-18556.09;5028960;28;11766;-71
2022/04/03 00:53:56;;;;;;;;;1.50;0.50;;;;;3.37;69.90;-18554.75;5029546;28;11474;-71
2022/04/03 00:56:22;;;;;;;;;0.00;0.00;;;;;3.37;69.66;-18554.75;5033589;28;11445;-72
2022/04/03 00:58:49;;;;;;;;;1.00;1.00;;;;;3.29;70.06;-18552.16;5032479;28;11554;-72
2022/04/03 01:01:16;;;;;;;;;0.00;0.00;;;;;3.28;70.08;-18551.88;5030371;28;11550;-71
2022/04/03 01:03:42;;;;;;;;;0.00;0.00;;;;;3.25;70.27;-18550.97;5047265;28;11444;-71
2022/04/03 01:06:09;;;;;;;;;1.00;1.00;;;;;3.20;70.59;-18549.59;5012780;28;11452;-71
2022/04/03 01:08:36;;;;;;;;;2.00;1.00;;;;;3.13;70.79;-18547.47;5024798;28;11492;-71
2022/04/03 01:11:02;;;;;;;;;2.00;2.00;;;;;3.06;70.88;-18545.50;5032002;28;11498;-71
2022/04/03 01:13:29;;;;;;;;;0.00;0.00;;;;;3.05;71.32;-18545.22;5027701;28;12311;-71
2022/04/03 01:16:00;;;;;;;;;0.50;0.50;;;;;3.05;71.58;-18545.22;5031664;28;11600;-72
2022/04/03 01:18:27;;;;;;;;;0.75;0.75;;;;;3.02;71.66;-18544.16;5024920;28;11432;-71
2022/04/03 01:20:54;;;;;;;;;0.00;0.00;;;;;2.99;71.68;-18543.41;5028351;28;12127;-69
2022/04/03 01:23:22;;;;;;;;;3.50;2.00;;;;;2.95;71.50;-18542.19;5029897;28;11432;-71
2022/04/03 01:25:48;;;;;;;;;1.00;1.00;;;;;2.93;71.83;-18541.56;5032998;28;11442;-69
2022/04/03 01:28:14;;;;;;;;;0.00;0.00;;;;;2.91;71.98;-18540.81;5034081;28;11452;-70
2022/04/03 01:30:41;;;;;;;;;1.50;1.50;;;;;2.91;72.15;-18540.81;5031894;28;11519;-71
2022/04/03 01:33:08;;;;;;;;;1.00;1.00;;;;;2.89;72.09;-18540.22;5031941;28;11456;-70
2022/04/03 01:35:34;;;;;;;;;0.00;0.00;;;;;2.92;72.15;-18541.13;5027089;28;12174;-70
2022/04/03 01:38:01;;;;;;;;;1.00;1.00;;;;;2.91;72.04;-18540.81;5031787;28;11602;-70
2022/04/03 01:40:27;;;;;;;;;0.00;0.00;;;;;2.85;71.95;-18539.16;5026720;28;11528;-70
2022/04/03 01:42:54;;;;;;;;;1.00;0.25;;;;;2.84;72.73;-18538.69;5026243;28;11424;-69
2022/04/03 01:45:21;;;;;;;;;0.00;0.00;;;;;2.83;72.75;-18538.41;5031145;28;11508;-69
2022/04/03 01:47:47;;;;;;;;;0.25;0.00;;;;;2.83;72.51;-18538.53;5008208;28;11524;-69
2022/04/03 01:50:14;;;;;;;;;4.00;1.25;;;;;2.86;72.74;-18539.44;5034772;28;11433;-69
2022/04/03 01:52:40;;;;;;;;;0.75;0.75;;;;;2.85;72.94;-18539.16;5028232;28;11458;-71
2022/04/03 01:55:07;;;;;;;;;0.00;0.00;;;;;2.83;72.61;-18538.53;5030838;28;11570;-71
2022/04/03 01:57:33;;;;;;;;;1.00;1.00;;;;;2.83;72.64;-18538.41;5028840;28;11420;-70
2022/04/03 02:00:00;;;;;;;;;1.50;1.00;;;;;2.84;72.94;-18538.69;5028325;28;11467;-70
2022/04/03 02:02:29;;;;;;;;;1.00;1.00;;;;;2.78;73.04;-18537.19;5030482;28;11445;-70
2022/04/03 02:04:56;;;;;;;;;2.00;0.00;;;;;2.82;72.94;-18538.09;5030503;28;11534;-70
2022/04/03 02:07:23;;;;;;;;;2.00;2.00;;;;;2.80;72.89;-18537.50;5025322;28;11473;-71
2022/04/03 02:09:49;;;;;;;;;2.00;0.25;;;;;2.82;73.22;-18538.25;5028012;28;11489;-73
2022/04/03 02:12:16;;;;;;;;;0.75;0.75;;;;;2.83;72.99;-18538.41;5027940;28;11551;-69
2022/04/03 02:14:42;;;;;;;;;0.00;0.00;;;;;2.96;72.99;-18542.31;5030036;28;11484;-70
2022/04/03 02:17:08;;;;;;;;;1.00;1.00;;;;;3.00;73.00;-18543.53;5026480;28;11559;-71
2022/04/03 02:19:35;;;;;;;;;0.25;0.25;;;;;3.02;73.14;-18544.31;5029945;28;11568;-70
2022/04/03 02:22:02;;;;;;;;;2.00;1.00;;;;;3.05;73.09;-18545.22;5028817;28;11571;-71
2022/04/03 02:24:28;;;;;;;;;1.75;1.00;;;;;3.05;73.50;-18545.22;5044868;28;12248;-70
2022/04/03 02:26:55;;;;;;;;;0.50;0.50;;;;;3.07;73.39;-18545.81;5028800;28;11432;-69
2022/04/03 02:29:21;;;;;;;;;1.00;1.00;;;;;3.09;73.22;-18546.41;5030269;28;11443;-70
2022/04/03 02:31:47;;;;;;;;;1.00;1.00;;;;;3.08;73.38;-18546.13;5029155;28;11540;-70
2022/04/03 02:34:14;;;;;;;;;0.75;0.75;;;;;3.12;73.79;-18547.03;5030306;28;11417;-69
2022/04/03 02:36:43;;;;;;;;;2.00;1.50;;;;;3.13;74.24;-18547.47;5038759;28;11469;-69
2022/04/03 02:39:10;;;;;;;;;1.00;1.00;;;;;3.16;74.04;-18548.38;5027440;28;11468;-70
2022/04/03 02:41:37;;;;;;;;;1.00;1.00;;;;;3.18;74.00;-18548.84;5028907;28;11482;-70
2022/04/03 02:44:06;;;;;;;;;4.00;2.00;;;;;3.18;74.18;-18549.00;5030049;28;11416;-70
2022/04/03 02:46:32;;;;;;;;;1.00;1.00;;;;;3.15;74.17;-18548.09;5028108;28;12212;-70
2022/04/03 02:48:59;;;;;;;;;2.00;2.00;;;;;3.12;74.11;-18547.03;5028678;28;11471;-71
2022/04/03 02:51:25;;;;;;;;;2.00;2.00;;;;;3.14;74.74;-18547.63;5028180;28;12117;-70
2022/04/03 02:53:52;;;;;;;;;1.00;1.00;;;;;3.12;74.29;-18547.19;5041447;28;11557;-70
2022/04/03 02:56:18;;;;;;;;;1.00;1.00;;;;;3.10;74.48;-18546.56;5029080;28;11425;-70
2022/04/03 02:58:45;;;;;;;;;1.75;1.75;;;;;3.08;74.58;-18545.97;5027163;28;11509;-70
2022/04/03 03:01:12;;;;;;;;;1.25;1.25;;;;;3.04;74.86;-18544.75;5027031;28;11454;-70
2022/04/03 03:03:40;;;;;;;;;1.25;1.25;;;;;3.00;74.81;-18543.53;5025357;28;11490;-71
2022/04/03 03:06:06;;;;;;;;;3.00;3.00;;;;;2.96;75.08;-18542.31;5025421;28;11434;-70
2022/04/03 03:08:33;;;;;;;;;7.00;4.75;;;;;2.91;74.95;-18540.97;5027360;28;11637;-70
2022/04/03 03:10:59;;;;;;;;;2.00;2.00;;;;;2.88;75.20;-18540.06;5026566;28;11526;-71
2022/04/03 03:13:27;;;;;;;;;2.00;2.00;;;;;2.81;75.40;-18537.94;5030243;28;12267;-71
2022/04/03 03:15:54;;;;;;;;;3.50;3.50;;;;;2.71;75.82;-18534.91;5026501;28;11446;-71
2022/04/03 03:18:22;;;;;;;;;2.00;2.00;;;;;2.69;75.82;-18534.31;5028371;28;11551;-71
2022/04/03 03:20:49;;;;;;;;;3.50;2.00;;;;;2.64;76.43;-18532.78;5026347;28;11627;-71
2022/04/03 03:23:15;;;;;;;;;4.25;3.50;;;;;2.62;76.59;-18532.19;5028627;28;11498;-71
2022/04/03 03:25:43;;;;;;;;;5.00;4.00;;;;;2.60;76.80;-18531.59;5028390;28;11530;-70
2022/04/03 03:28:09;;;;;;;;;3.75;2.25;;;;;2.60;76.84;-18531.59;5047023;28;11613;-70
2022/04/03 03:30:36;;;;;;;;;5.00;5.00;;;;;2.59;76.88;-18531.28;5031725;28;11529;-71
2022/04/03 03:33:02;;;;;;;;;4.25;4.00;;;;;2.48;76.99;-18528.09;5028015;28;11546;-70
2022/04/03 03:35:29;;;;;;;;;4.75;4.75;;;;;2.42;77.17;-18526.28;5030280;28;12267;-70
2022/04/03 03:37:56;;;;;;;;;4.00;2.00;;;;;2.45;77.31;-18527.34;5025049;28;11491;-72
2022/04/03 03:40:23;;;;;;;;;4.00;4.00;;;;;2.43;77.47;-18526.59;5027928;28;11583;-70
2022/04/03 03:42:54;;;;;;;;;2.00;2.00;;;;;2.44;77.08;-18527.03;5032307;28;11510;-70
2022/04/03 03:45:20;;;;;;;;;4.25;4.25;;;;;2.40;76.92;-18525.81;5035826;28;11517;-71
2022/04/03 03:47:50;;;;;;;;;5.00;4.00;;;;;2.37;77.13;-18524.75;5027218;28;11546;-70
2022/04/03 03:50:17;;;;;;;;;4.50;4.50;;;;;2.36;77.15;-18524.47;5046531;28;11520;-71
2022/04/03 03:52:43;;;;;;;;;4.25;4.00;;;;;2.33;77.28;-18523.72;5032294;28;11522;-71
2022/04/03 03:55:10;;;;;;;;;2.00;2.00;;;;;2.29;77.27;-18522.34;5046152;28;11530;-71
2022/04/03 03:57:38;;;;;;;;;5.00;3.00;;;;;2.26;77.57;-18521.59;5029307;28;11537;-71
2022/04/03 04:00:11;;;;;;;;;7.00;2.00;;;;;2.26;77.34;-18521.59;5031895;28;11490;-70
2022/04/03 04:02:38;;;;;;;;;2.25;2.25;;;;;2.21;77.59;-18519.91;5045843;28;12192;-72
2022/04/03 04:05:07;;;;;;;;;5.75;5.75;;;;;2.16;77.71;-18518.72;5040306;28;11577;-70
2022/04/03 04:07:41;;;;;;;;;5.00;5.00;;;;;2.10;78.12;-18516.75;5032648;28;11494;-70
2022/04/03 04:10:08;;;;;;;;;4.00;4.00;;;;;2.09;78.09;-18516.44;5032320;28;11528;-70
2022/04/03 04:12:35;;;;;;;;;6.50;6.50;;;;;2.08;78.62;-18516.28;5030658;28;11510;-71
2022/04/03 04:15:03;;;;;;;;;5.00;5.00;;;;;2.09;78.54;-18516.44;5033611;28;11526;-70
2022/04/03 04:17:38;;;;;;;;;4.75;4.75;;;;;2.01;78.69;-18514.00;5031502;28;12200;-70
2022/04/03 04:20:05;;;;;;;;;7.00;5.00;;;;;2.00;78.52;-18513.72;5027650;28;11564;-71
2022/04/03 04:22:32;;;;;;;;;4.50;4.50;;;;;1.95;78.68;-18512.34;5031264;28;11535;-70
2022/04/03 04:24:58;;;;;;;;;6.25;6.25;;;;;1.94;78.99;-18511.88;5030135;28;11576;-72
2022/04/03 04:27:25;;;;;;;;;8.00;5.50;;;;;1.91;78.73;-18511.13;5033020;28;11613;-71
2022/04/03 04:29:51;;;;;;;;;7.50;6.25;;;;;1.95;78.53;-18512.19;5086818;22;11563;-68
2022/04/03 04:32:21;;;;;;;;;6.25;5.75;;;;;1.93;78.37;-18511.75;5069641;28;11614;-68
2022/04/03 04:34:51;;;;;;;;;6.75;3.75;;;;;1.84;78.68;-18509.16;5071463;28;11546;-69
2022/04/03 04:37:18;;;;;;;;;6.75;5.00;;;;;1.84;78.94;-18509.16;5069543;28;11653;-69
2022/04/03 04:39:45;;;;;;;;;7.00;7.00;;;;;1.86;79.04;-18509.63;5059350;28;11519;-69
2022/04/03 04:42:13;;;;;;;;;4.00;4.00;;;;;1.81;79.15;-18508.25;5050340;28;11617;-72
2022/04/03 04:44:40;;;;;;;;;4.25;4.25;;;;;1.79;79.11;-18507.50;5046657;28;13115;-68
2022/04/03 04:47:06;;;;;;;;;5.00;5.00;;;;;1.74;79.15;-18506.13;5047582;28;11525;-69
2022/04/03 04:49:33;;;;;;;;;9.75;6.75;;;;;1.71;79.35;-18505.22;5053457;28;11530;-68
2022/04/03 04:52:00;;;;;;;;;7.25;6.75;;;;;1.71;79.60;-18505.06;5051005;28;11512;-72
2022/04/03 04:54:27;;;;;;;;;4.75;4.75;;;;;1.69;79.62;-18504.47;5052534;28;11638;-69
2022/04/03 04:56:53;;;;;;;;;11.50;8.00;;;;;1.66;79.89;-18503.56;5063519;28;12224;-71
2022/04/03 04:59:20;;;;;;;;;9.25;7.00;;;;;1.61;79.90;-18502.03;5053281;28;11530;-69
2022/04/03 05:01:46;;;;;;;;;8.00;6.00;;;;;1.62;80.00;-18502.50;5056938;28;12368;-67
2022/04/03 05:04:13;;;;;;;;;5.75;5.75;;;;;1.64;80.29;-18502.97;5056600;28;11569;-67
2022/04/03 05:06:40;;;;;;;;;10.75;6.50;;;;;1.61;80.43;-18502.03;5051145;28;11648;-68
2022/04/03 05:09:06;;;;;;;;;12.00;8.00;;;;;1.60;80.53;-18501.75;5055061;28;11680;-67
2022/04/03 05:11:34;;;;;;;;;7.00;7.00;;;;;1.53;80.82;-18499.94;5056218;28;12292;-72
2022/04/03 05:14:01;;;;;;;;;8.00;7.25;;;;;1.53;81.09;-18499.94;5057375;28;12282;-68
2022/04/03 05:16:27;;;;;;;;;8.50;7.50;;;;;1.59;81.05;-18501.59;5053978;28;11640;-67
2022/04/03 05:18:54;;;;;;;;;6.00;6.00;;;;;1.63;80.84;-18502.66;5056119;28;11520;-67
2022/04/03 05:21:22;;;;;;;;;6.00;4.75;;;;;1.59;80.79;-18501.59;5053595;28;11532;-69
2022/04/03 05:23:49;;;;;;;;;10.75;9.00;;;;;1.58;80.79;-18501.13;5050791;28;11494;-68
2022/04/03 05:26:17;;;;;;;;;7.00;6.25;;;;;1.54;81.06;-18500.22;5049756;28;11511;-67
2022/04/03 05:28:44;;;;;;;;;14.00;10.00;;;;;1.58;81.31;-18501.13;5052107;28;11507;-68
2022/04/03 05:31:11;;;;;;;;;9.00;7.50;;;;;1.57;81.23;-18501.00;5052536;28;11612;-69
2022/04/03 05:33:37;;;;;;;;;7.00;7.00;;;;;1.62;81.67;-18502.34;5045749;28;11542;-67
2022/04/03 05:36:04;;;;;;;;;10.25;9.00;;;;;1.62;81.28;-18502.50;5053961;28;11623;-67
2022/04/03 05:38:31;;;;;;;;;10.00;8.25;;;;;1.66;81.30;-18503.56;5054033;28;11475;-70
2022/04/03 05:40:58;;;;;;;;;4.75;4.25;;;;;1.66;81.18;-18503.56;5050511;28;11611;-69
2022/04/03 05:43:25;;;;;;;;;7.50;7.50;;;;;1.67;81.19;-18503.88;5050872;28;11525;-69
2022/04/03 05:45:51;;;;;;;;;6.50;6.25;;;;;1.70;81.14;-18504.91;5051390;28;12324;-73
2022/04/03 05:48:17;;;;;;;;;9.75;8.75;;;;;1.88;80.96;-18510.22;5050439;28;11715;-68
2022/04/03 05:50:45;;;;;;;;;10.50;10.50;;;;;2.16;79.85;-18518.56;5052520;28;11543;-72
2022/04/03 05:53:12;;;;;;;;;8.75;8.75;;;;;2.05;79.08;-18515.22;5050562;28;11638;-68
2022/04/03 05:55:38;;;;;;;;;9.00;7.25;;;;;2.09;79.26;-18516.59;5052030;28;11660;-68
2022/04/03 05:58:05;;;;;;;;;13.25;9.00;;;;;2.28;79.13;-18522.19;5041820;28;12355;-67
2022/04/03 06:00:31;;;;;;;;;12.00;7.75;;;;;2.47;78.57;-18527.94;5051110;28;11653;-73
2022/04/03 06:03:00;;;;;;;;;15.00;13.50;;;;;2.77;77.95;-18536.72;5050972;28;11643;-71
2022/04/03 06:05:34;;;;;;;;;10.25;10.25;;;;;2.94;76.33;-18541.88;5046894;28;11590;-71
2022/04/03 06:08:02;;;;;;;;;12.25;10.50;;;;;2.67;76.97;-18533.69;5049851;28;12956;-68
2022/04/03 06:10:29;;;;;;;;;9.25;9.25;;;;;2.93;77.33;-18541.56;5050295;28;11641;-68
2022/04/03 06:12:59;;;;;;;;;10.50;10.50;;;;;3.48;76.06;-18557.94;5049656;28;13150;-68
2022/04/03 06:15:28;;;;;;;;;10.75;10.75;;;;;3.64;73.73;-18562.75;5050224;28;11481;-68
2022/04/03 06:17:55;;;;;;;;;16.00;12.75;;;;;4.05;72.97;-18574.72;5040787;28;11836;-71
2022/04/03 06:20:22;;;;;;;;;14.00;11.50;;;;;4.53;72.08;-18589.25;5052437;28;11638;-70
2022/04/03 06:22:49;;;;;;;;;15.75;15.50;;;;;5.27;69.02;-18611.19;5050163;28;11603;-68
2022/04/03 06:25:15;;;;;;;;;8.25;6.25;;;;;4.86;68.22;-18599.09;5048956;28;11695;-70
2022/04/03 06:27:42;;;;;;;;;6.75;6.75;;;;;4.82;69.79;-18597.72;5053032;28;11445;-68
2022/04/03 06:30:09;;;;;;;;;8.00;7.00;;;;;5.04;69.66;-18604.22;5053359;28;11461;-71
2022/04/03 06:32:36;;;;;;;;;9.50;9.00;;;;;5.19;68.57;-18608.91;5049652;28;11576;-70
2022/04/03 06:35:02;;;;;;;;;12.00;8.25;;;;;5.18;68.86;-18608.63;5052513;28;11442;-70
2022/04/03 06:37:29;;;;;;;;;6.75;5.00;;;;;5.01;68.90;-18603.47;5050020;28;11469;-68
2022/04/03 06:39:55;;;;;;;;;8.00;7.75;;;;;5.22;68.72;-18609.69;5057109;28;11441;-69
2022/04/03 06:42:22;;;;;;;;;5.50;5.50;;;;;5.30;68.23;-18611.94;5048985;28;11540;-70
2022/04/03 06:44:48;;;;;;;;;6.25;6.00;;;;;5.30;68.13;-18612.09;5050613;28;11475;-69
2022/04/03 06:47:14;;;;;;;;;6.25;4.00;;;;;5.24;67.69;-18610.28;5041212;28;11561;-69
2022/04/03 06:49:41;;;;;;;;;7.00;4.00;;;;;5.01;68.40;-18603.31;5050088;28;11455;-69
2022/04/03 06:52:10;;;;;;;;;5.50;5.50;;;;;4.85;68.64;-18598.63;5061334;28;11462;-69
2022/04/03 06:54:37;;;;;;;;;7.25;6.50;;;;;4.68;69.22;-18593.47;5051578;28;11575;-70
2022/04/03 06:57:03;;;;;;;;;6.00;6.00;;;;;4.54;69.56;-18589.41;5050081;28;11433;-70
2022/04/03 06:59:30;;;;;;;;;6.50;6.50;;;;;4.40;69.71;-18585.31;5049772;28;11451;-68
2022/04/03 07:01:57;;;;;;;;;8.00;8.00;;;;;4.49;70.12;-18588.03;5047285;28;11539;-68
2022/04/03 07:04:24;;;;;;;;;4.00;4.00;;;;;5.21;68.71;-18609.53;5045930;28;11461;-69
2022/04/03 07:06:50;;;;;;;;;4.00;3.25;;;;;5.68;66.70;-18623.44;5047352;28;11505;-71
2022/04/03 07:09:17;;;;;;;;;5.75;4.50;;;;;6.18;64.76;-18638.41;5048988;28;11520;-70
2022/04/03 07:11:44;;;;;;;;;7.00;6.00;;;;;6.28;62.74;-18641.13;5052282;28;12255;-71
2022/04/03 07:14:10;;;;;;;;;4.75;4.75;;;;;6.33;62.37;-18642.78;5050484;28;11569;-69
2022/04/03 07:16:37;;;;;;;;;6.50;5.50;;;;;6.27;62.58;-18640.97;5048940;28;11474;-68
2022/04/03 07:19:04;;;;;;;;;4.00;4.00;;;;;6.19;62.74;-18638.56;5049557;28;11922;-70
2022/04/03 07:21:31;;;;;;;;;5.75;5.75;;;;;6.12;61.79;-18636.44;5049230;28;11140;-69
2022/04/03 07:23:58;;;;;;;;;5.25;5.25;;;;;6.07;62.53;-18634.94;5054003;28;11439;-68
2022/04/03 07:26:24;;;;;;;;;4.00;4.00;;;;;6.64;60.62;-18651.88;5052494;28;11423;-71
2022/04/03 07:28:51;;;;;;;;;3.00;3.00;;;;;7.12;59.01;-18666.22;5054768;28;11329;-71
2022/04/03 07:31:17;;;;;;;;;3.50;3.50;;;;;7.59;57.96;-18680.28;5053189;28;11529;-67
2022/04/03 07:33:44;;;;;;;;;4.00;4.00;;;;;7.91;56.96;-18689.66;5053426;28;11016;-69
2022/04/03 07:36:10;;;;;;;;;1.50;1.50;;;;;7.88;55.95;-18688.75;5050195;28;11060;-70
2022/04/03 07:38:36;;;;;;;;;4.00;4.00;;;;;7.32;56.98;-18672.28;5051239;28;11057;-70
2022/04/03 07:41:03;;;;;;;;;5.00;3.00;;;;;6.92;57.70;-18660.31;5049733;28;11111;-68
2022/04/03 07:43:30;;;;;;;;;0.75;0.75;;;;;6.76;58.73;-18655.66;5053638;28;11855;-68
2022/04/03 07:45:57;;;;;;;;;1.00;1.00;;;;;6.67;58.87;-18652.78;5052329;28;10880;-69
2022/04/03 07:48:23;;;;;;;;;1.00;1.00;;;;;6.69;58.96;-18653.53;5045636;28;11576;-68
2022/04/03 07:50:51;;;;;;;;;2.00;2.00;;;;;6.61;59.41;-18651.09;5040393;28;11029;-68
2022/04/03 07:53:18;;;;;;;;;1.00;1.00;;;;;6.61;59.65;-18651.09;5038702;28;11131;-69
2022/04/03 07:55:45;;;;;;;;;1.00;1.00;;;;;6.78;59.32;-18656.09;5040640;28;10949;-71
2022/04/03 07:58:12;;;;;;;;;1.00;1.00;;;;;6.70;58.63;-18653.84;5034437;28;11071;-68
2022/04/03 08:00:38;;;;;;;;;2.00;0.25;;;;;6.64;59.40;-18652.00;5043094;28;11151;-68
2022/04/03 08:03:05;;;;;;;;;1.00;1.00;;;;;6.54;59.32;-18648.84;5047272;28;10941;-70
2022/04/03 08:05:31;;;;;;;;;1.00;1.00;;;;;6.47;60.12;-18647.03;5052947;28;10954;-69
2022/04/03 08:07:58;;;;;;;;;1.00;1.00;;;;;6.38;60.00;-18644.31;5048247;28;10891;-68
2022/04/03 08:10:24;;;;;;;;;1.00;1.00;;;;;6.27;60.23;-18640.84;5051559;28;10913;-68
2022/04/03 08:12:51;;;;;;;;;2.00;2.00;;;;;6.13;60.49;-18636.91;5052912;28;11123;-68
2022/04/03 08:15:19;;;;;;;;;2.00;2.00;;;;;6.05;60.79;-18634.34;5051571;28;11059;-69
2022/04/03 08:17:46;;;;;;;;;1.00;1.00;;;;;6.03;61.61;-18633.72;5050073;28;11088;-69
2022/04/03 08:20:16;;;;;;;;;3.00;3.00;;;;;6.03;61.34;-18633.88;5035452;28;11037;-68
2022/04/03 08:22:44;;;;;;;;;2.00;2.00;;;;;5.99;62.41;-18632.53;5051314;28;11110;-68
2022/04/03 08:25:12;;;;;;;;;3.00;1.00;;;;;5.71;62.77;-18624.34;5052252;28;11425;-69
2022/04/03 08:27:43;;;;;;;;;1.00;1.00;;;;;5.69;64.80;-18623.59;5052568;28;11524;-69
2022/04/03 08:30:13;;;;;;;;;0.50;0.50;;;;;5.76;65.59;-18625.72;5047884;28;11107;-68
2022/04/03 08:32:41;;;;;;;;;2.00;2.00;;;;;5.65;66.95;-18622.38;5043691;28;11318;-68
2022/04/03 08:35:08;;;;;;;;;1.75;1.75;;;;;5.51;68.84;-18618.28;5051280;28;11584;-68
2022/04/03 08:37:35;;;;;;;;;0.00;0.00;;;;;5.42;71.38;-18615.72;5049723;28;11137;-69
2022/04/03 08:40:03;;;;;;;;;0.00;0.00;;;;;5.13;74.92;-18606.94;5043620;28;11103;-68
2022/04/03 08:42:30;;;;;;;;;1.00;1.00;;;;;5.04;76.85;-18604.38;5050238;28;11337;-68
2022/04/03 08:44:57;;;;;;;;;0.25;0.25;;;;;5.11;78.84;-18606.50;5064109;28;11230;-69
2022/04/03 08:47:25;;;;;;;;;3.75;1.50;;;;;4.87;81.10;-18599.38;5034141;28;11285;-69
2022/04/03 08:50:00;;;;;;;;;3.00;3.00;;;;;4.74;82.20;-18595.31;5042086;28;11459;-69
2022/04/03 08:52:27;;;;;;;;;1.00;1.00;;;;;4.60;83.08;-18591.22;5038301;28;11493;-69
2022/04/03 08:54:54;;;;;;;;;1.75;1.75;;;;;4.59;84.10;-18591.06;5041879;28;11295;-70
2022/04/03 08:57:21;;;;;;;;;1.00;1.00;;;;;4.50;84.13;-18588.19;5046116;28;11467;-69
2022/04/03 08:59:50;;;;;;;;;0.50;0.50;;;;;4.61;84.93;-18591.53;5042972;28;12289;-70
2022/04/03 09:02:16;;;;;;;;;1.00;1.00;;;;;4.67;85.29;-18593.19;5042260;28;11448;-68
2022/04/03 09:04:45;;;;;;;;;0.25;0.25;;;;;4.72;85.89;-18594.84;5040978;28;12252;-70
2022/04/03 09:07:17;;;;;;;;;0.00;0.00;;;;;4.80;86.16;-18597.13;5048307;28;11420;-71
2022/04/03 09:09:45;;;;;;;;;0.00;0.00;;;;;4.98;86.42;-18602.41;5049867;28;11528;-69
2022/04/03 09:12:15;;;;;;;;;1.00;1.00;;;;;5.10;86.81;-18606.19;5043124;28;11437;-71
2022/04/03 09:14:54;;;;;;;;;0.25;0.00;;;;;4.99;85.16;-18602.72;5052037;28;11394;-71
2022/04/03 09:17:38;;;;;;;;;0.00;0.00;;;;;5.24;85.35;-18610.28;5051693;28;11504;-68
2022/04/03 09:20:07;;;;;;;;;1.00;0.00;;;;;5.54;85.29;-18619.34;5039400;28;11416;-69
2022/04/03 09:22:35;;;;;;;;;0.75;0.00;;;;;5.72;84.25;-18624.50;5034138;28;11445;-70
2022/04/03 09:25:04;;;;;;;;;0.00;0.00;;;;;6.01;83.43;-18633.28;5038416;28;11431;-70
2022/04/03 09:27:34;;;;;;;;;0.00;0.00;;;;;6.27;81.59;-18640.97;5047607;28;11428;-71
2022/04/03 09:30:04;;;;;;;;;0.00;0.00;;;;;6.32;81.79;-18642.34;5044962;28;11910;-69
2022/04/03 09:32:31;;;;;;;;;0.00;0.00;;;;;6.27;80.51;-18640.84;5042797;28;11035;-69
2022/04/03 09:34:58;;;;;;;;;0.75;0.00;;;;;6.33;81.86;-18642.78;5049194;28;11124;-68
2022/04/03 09:37:30;;;;;;;;;1.00;0.75;;;;;6.47;80.82;-18646.88;5051318;28;11133;-71
2022/04/03 09:39:57;;;;;;;;;0.00;0.00;;;;;6.58;79.20;-18650.19;5050535;28;10939;-71
2022/04/03 09:42:23;;;;;;;;;2.25;0.00;;;;;6.78;78.04;-18656.25;5031005;28;11022;-72
2022/04/03 09:44:50;;;;;;;;;0.75;0.75;;;;;7.40;76.13;-18674.53;5031473;28;11805;-68
2022/04/03 09:47:26;;;;;;;;;1.00;1.00;;;;;7.46;76.34;-18676.19;5029496;28;11639;-71
2022/04/03 09:49:54;;;;;;;;;0.25;0.00;;;;;8.44;80.98;-18705.38;5039236;28;11021;-70
2022/04/03 09:52:37;;;;;;;;;0.75;0.75;;;;;7.50;75.85;-18677.56;5049069;28;10979;-71
2022/04/03 09:55:13;;;;;;;;;0.75;0.75;;;;;7.16;76.34;-18667.44;5049833;28;10747;-72
2022/04/03 09:57:47;;;;;;;;;0.00;0.00;;;;;7.18;77.16;-18667.88;5046943;28;10725;-71
2022/04/03 10:00:41;;;;;;;;;1.00;1.00;;;;;7.33;77.00;-18672.41;5043477;28;10721;-71
2022/04/03 10:03:10;;;;;;;;;0.00;0.00;;;;;7.98;75.50;-18691.91;5041256;28;10743;-70
2022/04/03 10:05:37;;;;;;;;;1.75;0.75;;;;;8.35;72.64;-18702.63;5046052;28;10783;-69
2022/04/03 10:08:05;;;;;;;;;1.00;1.00;;;;;8.89;70.52;-18718.81;5050669;28;10708;-69
2022/04/03 10:10:34;;;;;;;;;0.00;0.00;;;;;9.15;67.11;-18726.66;5048398;28;10837;-71
2022/04/03 10:13:02;;;;;;;;;0.00;0.00;;;;;9.47;66.24;-18736.00;5049809;28;11426;-71
2022/04/03 10:15:29;;;;;;;;;1.00;1.00;;;;;9.59;67.26;-18739.63;5035093;28;10590;-71
2022/04/03 10:17:57;;;;;;;;;0.75;0.75;;;;;9.97;67.18;-18750.81;5042372;28;10508;-69
2022/04/03 10:20:25;;;;;;;;;0.00;0.00;;;;;9.76;63.23;-18744.75;5039630;28;10444;-72
2022/04/03 10:22:56;;;;;;;;;1.00;1.00;;;;;9.90;64.05;-18748.84;5048977;28;10343;-72
2022/04/03 10:25:27;;;;;;;;;2.00;1.00;;;;;9.99;64.84;-18751.56;5049985;28;10568;-72
2022/04/03 10:27:56;;;;;;;;;1.00;0.75;;;;;10.27;64.90;-18759.72;5031771;28;11160;-71
2022/04/03 10:30:59;;;;;;;;;2.00;2.00;;;;;10.27;62.62;-18759.88;5045758;28;10481;-68
2022/04/03 10:33:36;;;;;;;;;2.00;2.00;;;;;10.52;60.38;-18767.25;5008951;28;10457;-67
2022/04/03 10:36:08;;;;;;;;;1.00;1.00;;;;;10.98;61.55;-18780.84;5042378;28;11195;-69
2022/04/03 10:38:35;;;;;;;;;1.25;1.25;;;;;10.14;61.44;-18755.94;5041134;28;10169;-70
2022/04/03 10:41:03;;;;;;;;;1.75;1.25;;;;;9.46;61.71;-18735.72;5038189;28;10284;-69
2022/04/03 10:43:30;;;;;;;;;1.00;1.00;;;;;9.21;64.63;-18728.47;5030597;28;10187;-69
2022/04/03 10:45:57;;;;;;;;;1.00;1.00;;;;;8.90;65.32;-18719.09;5034195;28;10323;-70
2022/04/03 10:48:26;;;;;;;;;1.50;1.50;;;;;8.48;65.82;-18706.56;5038493;28;10086;-70
2022/04/03 10:51:06;;;;;;;;;0.00;0.00;;;;;7.78;66.12;-18685.88;5041041;28;10339;-70
2022/04/03 10:53:36;;;;;;;;;0.00;0.00;;;;;7.35;70.14;-18673.03;5040181;28;10372;-70
2022/04/03 10:56:11;;;;;;;;;0.00;0.00;;;;;7.16;73.72;-18667.28;5045602;28;10625;-68
2022/04/03 10:58:44;;;;;;;;;0.00;0.00;;;;;7.12;75.48;-18666.06;5052066;28;10419;-69
2022/04/03 11:01:22;;;;;;;;;0.00;0.00;;;;;7.11;77.51;-18665.91;5041988;28;10690;-71
2022/04/03 11:03:57;;;;;;;;;0.00;0.00;;;;;7.03;77.61;-18663.50;5050287;28;10595;-68
2022/04/03 11:06:35;;;;;;;;;0.00;0.00;;;;;7.04;78.29;-18663.81;5049757;28;11389;-72
2022/04/03 11:09:09;;;;;;;;;0.00;0.00;;;;;7.03;77.52;-18663.66;5054058;28;10809;-69
2022/04/03 11:11:50;;;;;;;;;0.00;0.00;;;;;7.45;77.16;-18675.91;5046092;28;10750;-68
2022/04/03 11:14:52;;;;;;;;;0.00;0.00;;;;;8.24;74.45;-18699.47;5045155;28;10655;-70
2022/04/03 11:17:40;;;;;;;;;0.00;0.00;;;;;8.68;71.78;-18712.47;5062330;28;10671;-68
2022/04/03 11:20:07;;;;;;;;;0.00;0.00;;;;;9.72;69.90;-18743.41;5033164;28;10667;-70
2022/04/03 11:22:35;;;;;;;;;0.00;0.00;;;;;9.71;68.08;-18743.25;5051393;28;10708;-68
2022/04/03 11:25:03;;;;;;;;;0.50;0.50;;;;;9.76;66.53;-18744.63;5050636;28;10500;-69
2022/04/03 11:27:29;;;;;;;;;0.00;0.00;;;;;9.66;63.95;-18741.75;5051939;28;10280;-69
2022/04/03 11:29:58;;;;;;;;;0.00;0.00;;;;;10.04;65.40;-18753.06;5040913;28;10197;-69
2022/04/03 11:32:25;;;;;;;;;1.00;0.00;;;;;10.30;62.77;-18760.63;5048696;28;10283;-68
2022/04/03 11:34:58;;;;;;;;;1.00;1.00;;;;;10.23;62.07;-18758.66;5051816;28;10277;-68